Mountain Iron, MN (55768)

3:42 AM CDT on September 30, 2016 (GMT -0500)
10th St S and Railroad | | Change Station

Elev 1463 ft 47.51 °N, 92.53 °W | Updated 11 seconds ago

Overcast
Overcast
49.5 °F
Feels Like 50 °F
N
0.0
Wind Variable Wind from SSE
Gusts 0.0 mph

Today
High -- | Low -- °F
--% Chance of Precip.
Yesterday
High -- | Low -- °F
Precip. -- in
Pressure 30.45 in
Visibility 7.0 miles
Clouds Overcast 400 ft
Windchill 50 °F
Dew Point 48 °F
Humidity 96%
Rainfall 0.00 in
Snow Depth Not available.
7:08 AM 6:50 PM
Waning Crescent, 0% visible
METAR KEVM 300833Z AUTO 00000KT 7SM OVC004 10/10 A3045 RMK AO2 T01000096
Pressure 30.45 in
Visibility 7.0 miles
Clouds Overcast 400 ft
Windchill 50 °F
Dew Point 48 °F
Humidity 96%
Rainfall 0.00 in
Snow Depth Not available.
7:08 AM 6:50 PM
Waning Crescent, 0% visible
METAR KEVM 300833Z AUTO 00000KT 7SM OVC004 10/10 A3045 RMK AO2 T01000096

10-Day Weather Forecast

Almanac

Astronomy

Sep. 30, 2016 Rise Set
Actual Time
Civil Twilight
Nautical Twilight
Astronomical Twilight
Moon
Length of Visible Light
Length of Day
Tomorrow will be .
, % of the Moon is Illuminated

Today's Extremes

State Highs State Lows

Community

WunderPhotos

Upload Photos

1,942,668 photos uploaded!

WunderBlog® & News

Nearby

Air Quality

  Air Quality AQ Index Pollutant
Not available.

Snow Depth

Station Depth Elevation

Earthquake Activity

City Distance Mag. Time & Date
Minimum magnitude displayed is 2.5.

Coastal Water Temperatures

Place Temperature

Stations

Nearby Weather Stations

Station Location Temp. Windchill Dew Point Humidity Wind Precip. Elev Updated Type
                   

Watches & Warnings

There are currently no watches in effect.